Montgomery, Texas
Current Conditions -  °F | °C
As of 4:53 PM on Thursday 18 Dec 2014 (Local Time) from KCXO Reporting Station
Overcast Overcast  
Wind Chill: 63°   Ceiling: 2200
Heat Index: 63°   Visibility: 10mi
Dew Point: 56°   Wind: 8mph
Humidity: 78%   Direction: 30°NNE
Pressure: 30.06"   Gusts: NA
Location:  30.39°N, 95.7°W
Report Text: KCXO 182253Z 03007KT 360V070 10SM BKN022 OVC048 17/13 A3006 RMK AO2 SLP177 T01720133
Loading
Personal Weather Stations






























Interactive Weather Map New forecast layout! Learn more

10-Day Weather Forecast

Advertisements
Track Severe Weather on mobile